sensor_id;sensor_type;location;lat;lon;timestamp;P1;durP1;ratioP1;P2;durP2;ratioP2
20559;SDS011;10438;51.454;6.718;2023-02-28T00:00:29;11.67;;;4.83;;
20559;SDS011;10438;51.454;6.718;2023-02-28T00:02:56;12.53;;;5.00;;
20559;SDS011;10438;51.454;6.718;2023-02-28T00:05:22;11.90;;;4.77;;
20559;SDS011;10438;51.454;6.718;2023-02-28T00:07:49;8.67;;;4.93;;
20559;SDS011;10438;51.454;6.718;2023-02-28T00:12:47;14.57;;;5.57;;
20559;SDS011;10438;51.454;6.718;2023-02-28T00:15:13;17.17;;;6.17;;
20559;SDS011;10438;51.454;6.718;2023-02-28T00:17:39;16.50;;;5.77;;
20559;SDS011;10438;51.454;6.718;2023-02-28T00:20:05;14.43;;;5.53;;
20559;SDS011;10438;51.454;6.718;2023-02-28T00:22:33;11.83;;;5.07;;
20559;SDS011;10438;51.454;6.718;2023-02-28T00:24:59;13.37;;;4.60;;
20559;SDS011;10438;51.454;6.718;2023-02-28T00:27:25;13.37;;;4.77;;
20559;SDS011;10438;51.454;6.718;2023-02-28T00:29:50;10.53;;;5.17;;
20559;SDS011;10438;51.454;6.718;2023-02-28T00:32:16;16.03;;;5.60;;
20559;SDS011;10438;51.454;6.718;2023-02-28T00:34:42;10.73;;;4.40;;
20559;SDS011;10438;51.454;6.718;2023-02-28T00:37:09;10.77;;;5.10;;
20559;SDS011;10438;51.454;6.718;2023-02-28T00:39:37;18.63;;;5.90;;
20559;SDS011;10438;51.454;6.718;2023-02-28T00:42:03;14.63;;;5.77;;
20559;SDS011;10438;51.454;6.718;2023-02-28T00:44:29;13.93;;;5.30;;
20559;SDS011;10438;51.454;6.718;2023-02-28T00:46:56;10.33;;;4.90;;
20559;SDS011;10438;51.454;6.718;2023-02-28T00:49:22;11.97;;;5.13;;
20559;SDS011;10438;51.454;6.718;2023-02-28T00:51:48;12.77;;;5.07;;
20559;SDS011;10438;51.454;6.718;2023-02-28T00:54:14;11.37;;;5.13;;
20559;SDS011;10438;51.454;6.718;2023-02-28T00:56:40;10.33;;;4.30;;
20559;SDS011;10438;51.454;6.718;2023-02-28T00:59:05;9.43;;;4.63;;
20559;SDS011;10438;51.454;6.718;2023-02-28T01:01:31;9.83;;;4.30;;
20559;SDS011;10438;51.454;6.718;2023-02-28T01:03:56;12.43;;;5.07;;
20559;SDS011;10438;51.454;6.718;2023-02-28T01:06:22;12.37;;;4.87;;
20559;SDS011;10438;51.454;6.718;2023-02-28T01:08:47;14.37;;;4.93;;
20559;SDS011;10438;51.454;6.718;2023-02-28T01:11:14;12.20;;;3.87;;
20559;SDS011;10438;51.454;6.718;2023-02-28T01:13:41;11.40;;;4.40;;
20559;SDS011;10438;51.454;6.718;2023-02-28T01:16:08;10.67;;;4.53;;
20559;SDS011;10438;51.454;6.718;2023-02-28T01:18:33;13.00;;;4.80;;
20559;SDS011;10438;51.454;6.718;2023-02-28T01:21:03;11.63;;;4.43;;
20559;SDS011;10438;51.454;6.718;2023-02-28T01:23:34;13.63;;;4.33;;
20559;SDS011;10438;51.454;6.718;2023-02-28T01:26:07;13.37;;;4.67;;
20559;SDS011;10438;51.454;6.718;2023-02-28T01:28:43;13.80;;;5.37;;
20559;SDS011;10438;51.454;6.718;2023-02-28T01:31:10;21.20;;;4.70;;
20559;SDS011;10438;51.454;6.718;2023-02-28T01:33:36;12.00;;;4.50;;
20559;SDS011;10438;51.454;6.718;2023-02-28T01:36:04;10.33;;;4.33;;
20559;SDS011;10438;51.454;6.718;2023-02-28T01:38:33;11.97;;;4.37;;
20559;SDS011;10438;51.454;6.718;2023-02-28T01:40:59;16.60;;;4.40;;
20559;SDS011;10438;51.454;6.718;2023-02-28T01:43:25;12.70;;;4.27;;
20559;SDS011;10438;51.454;6.718;2023-02-28T01:45:53;12.20;;;4.20;;
20559;SDS011;10438;51.454;6.718;2023-02-28T01:48:27;16.10;;;5.03;;
20559;SDS011;10438;51.454;6.718;2023-02-28T01:50:58;12.43;;;4.17;;
20559;SDS011;10438;51.454;6.718;2023-02-28T01:53:30;9.93;;;3.50;;
20559;SDS011;10438;51.454;6.718;2023-02-28T01:55:59;8.43;;;3.20;;
20559;SDS011;10438;51.454;6.718;2023-02-28T01:58:27;9.80;;;3.17;;
20559;SDS011;10438;51.454;6.718;2023-02-28T02:00:53;8.23;;;3.33;;
20559;SDS011;10438;51.454;6.718;2023-02-28T02:03:19;7.63;;;3.17;;
20559;SDS011;10438;51.454;6.718;2023-02-28T02:05:45;8.77;;;3.03;;
20559;SDS011;10438;51.454;6.718;2023-02-28T02:08:13;9.83;;;2.90;;
20559;SDS011;10438;51.454;6.718;2023-02-28T02:10:48;11.53;;;3.63;;
20559;SDS011;10438;51.454;6.718;2023-02-28T02:35:20;11.13;;;2.97;;
20559;SDS011;10438;51.454;6.718;2023-02-28T02:38:13;9.50;;;3.20;;
20559;SDS011;10438;51.454;6.718;2023-02-28T02:43:46;6.10;;;2.70;;
20559;SDS011;10438;51.454;6.718;2023-02-28T02:46:20;8.50;;;3.00;;
20559;SDS011;10438;51.454;6.718;2023-02-28T02:48:54;9.10;;;3.43;;
20559;SDS011;10438;51.454;6.718;2023-02-28T02:51:22;11.40;;;3.13;;
20559;SDS011;10438;51.454;6.718;2023-02-28T02:54:00;7.73;;;3.17;;
20559;SDS011;10438;51.454;6.718;2023-02-28T02:56:32;10.43;;;3.03;;
20559;SDS011;10438;51.454;6.718;2023-02-28T02:59:01;9.80;;;3.37;;
20559;SDS011;10438;51.454;6.718;2023-02-28T03:01:29;11.13;;;4.33;;
20559;SDS011;10438;51.454;6.718;2023-02-28T03:04:01;11.23;;;3.77;;
20559;SDS011;10438;51.454;6.718;2023-02-28T03:06:30;8.67;;;3.70;;
20559;SDS011;10438;51.454;6.718;2023-02-28T03:08:56;7.73;;;3.47;;
20559;SDS011;10438;51.454;6.718;2023-02-28T03:11:22;9.77;;;3.27;;
20559;SDS011;10438;51.454;6.718;2023-02-28T03:22:57;6.23;;;3.20;;
20559;SDS011;10438;51.454;6.718;2023-02-28T03:28:08;7.87;;;3.30;;
20559;SDS011;10438;51.454;6.718;2023-02-28T03:33:21;8.60;;;3.00;;
20559;SDS011;10438;51.454;6.718;2023-02-28T03:36:21;7.30;;;3.00;;
20559;SDS011;10438;51.454;6.718;2023-02-28T03:38:50;9.53;;;3.37;;
20559;SDS011;10438;51.454;6.718;2023-02-28T03:41:25;7.90;;;3.00;;
20559;SDS011;10438;51.454;6.718;2023-02-28T03:44:03;8.60;;;3.07;;
20559;SDS011;10438;51.454;6.718;2023-02-28T03:46:35;6.87;;;3.30;;
20559;SDS011;10438;51.454;6.718;2023-02-28T03:49:15;8.43;;;3.10;;
20559;SDS011;10438;51.454;6.718;2023-02-28T03:51:47;6.13;;;3.00;;
20559;SDS011;10438;51.454;6.718;2023-02-28T03:54:25;6.07;;;3.03;;
20559;SDS011;10438;51.454;6.718;2023-02-28T03:56:58;8.73;;;3.60;;
20559;SDS011;10438;51.454;6.718;2023-02-28T04:02:01;6.67;;;3.20;;
20559;SDS011;10438;51.454;6.718;2023-02-28T04:04:27;7.10;;;3.17;;
20559;SDS011;10438;51.454;6.718;2023-02-28T04:06:53;7.03;;;3.40;;
20559;SDS011;10438;51.454;6.718;2023-02-28T04:09:27;6.57;;;3.00;;
20559;SDS011;10438;51.454;6.718;2023-02-28T04:11:52;7.87;;;3.03;;
20559;SDS011;10438;51.454;6.718;2023-02-28T04:14:20;7.90;;;3.40;;
20559;SDS011;10438;51.454;6.718;2023-02-28T04:16:46;11.40;;;4.20;;
20559;SDS011;10438;51.454;6.718;2023-02-28T04:19:12;12.30;;;4.43;;
20559;SDS011;10438;51.454;6.718;2023-02-28T04:21:46;10.90;;;3.70;;
20559;SDS011;10438;51.454;6.718;2023-02-28T04:24:14;12.60;;;4.20;;
20559;SDS011;10438;51.454;6.718;2023-02-28T04:26:43;8.33;;;3.97;;
20559;SDS011;10438;51.454;6.718;2023-02-28T04:29:11;8.03;;;3.30;;
20559;SDS011;10438;51.454;6.718;2023-02-28T04:31:38;8.27;;;3.10;;
20559;SDS011;10438;51.454;6.718;2023-02-28T04:34:04;9.67;;;3.17;;
20559;SDS011;10438;51.454;6.718;2023-02-28T04:36:30;7.07;;;2.60;;
20559;SDS011;10438;51.454;6.718;2023-02-28T04:38:56;10.83;;;3.40;;
20559;SDS011;10438;51.454;6.718;2023-02-28T04:41:21;8.87;;;3.30;;
20559;SDS011;10438;51.454;6.718;2023-02-28T04:43:48;9.07;;;2.90;;
20559;SDS011;10438;51.454;6.718;2023-02-28T04:46:16;6.03;;;2.77;;
20559;SDS011;10438;51.454;6.718;2023-02-28T04:48:43;7.33;;;3.03;;
20559;SDS011;10438;51.454;6.718;2023-02-28T04:51:10;7.30;;;3.00;;
20559;SDS011;10438;51.454;6.718;2023-02-28T04:53:37;7.43;;;2.63;;
20559;SDS011;10438;51.454;6.718;2023-02-28T04:56:04;8.07;;;2.90;;
20559;SDS011;10438;51.454;6.718;2023-02-28T04:58:31;10.07;;;3.50;;
20559;SDS011;10438;51.454;6.718;2023-02-28T05:01:07;8.47;;;3.00;;
20559;SDS011;10438;51.454;6.718;2023-02-28T05:03:51;9.07;;;3.20;;
20559;SDS011;10438;51.454;6.718;2023-02-28T05:06:19;7.43;;;2.77;;
20559;SDS011;10438;51.454;6.718;2023-02-28T05:08:46;9.70;;;3.10;;
20559;SDS011;10438;51.454;6.718;2023-02-28T05:13:45;9.23;;;3.30;;
20559;SDS011;10438;51.454;6.718;2023-02-28T05:16:11;7.07;;;3.00;;
20559;SDS011;10438;51.454;6.718;2023-02-28T05:18:36;6.10;;;2.70;;
20559;SDS011;10438;51.454;6.718;2023-02-28T05:21:03;16.43;;;3.17;;
20559;SDS011;10438;51.454;6.718;2023-02-28T05:23:28;8.53;;;3.40;;
20559;SDS011;10438;51.454;6.718;2023-02-28T05:25:54;8.53;;;3.27;;
20559;SDS011;10438;51.454;6.718;2023-02-28T05:28:20;6.60;;;2.93;;
20559;SDS011;10438;51.454;6.718;2023-02-28T05:30:46;10.40;;;3.27;;
20559;SDS011;10438;51.454;6.718;2023-02-28T05:33:12;8.50;;;3.43;;
20559;SDS011;10438;51.454;6.718;2023-02-28T05:35:39;11.70;;;3.93;;
20559;SDS011;10438;51.454;6.718;2023-02-28T05:38:05;13.00;;;4.17;;
20559;SDS011;10438;51.454;6.718;2023-02-28T05:40:31;16.37;;;5.03;;
20559;SDS011;10438;51.454;6.718;2023-02-28T05:42:56;17.13;;;5.10;;
20559;SDS011;10438;51.454;6.718;2023-02-28T05:45:22;12.47;;;4.77;;
20559;SDS011;10438;51.454;6.718;2023-02-28T05:47:47;15.43;;;5.63;;
20559;SDS011;10438;51.454;6.718;2023-02-28T05:50:13;17.33;;;5.80;;
20559;SDS011;10438;51.454;6.718;2023-02-28T05:52:38;18.73;;;6.67;;
20559;SDS011;10438;51.454;6.718;2023-02-28T05:55:04;18.40;;;5.43;;
20559;SDS011;10438;51.454;6.718;2023-02-28T05:57:30;12.17;;;4.90;;
20559;SDS011;10438;51.454;6.718;2023-02-28T05:59:55;13.53;;;4.37;;
20559;SDS011;10438;51.454;6.718;2023-02-28T06:02:21;15.57;;;4.40;;
20559;SDS011;10438;51.454;6.718;2023-02-28T06:04:46;15.03;;;4.50;;
20559;SDS011;10438;51.454;6.718;2023-02-28T06:07:12;11.80;;;4.33;;
20559;SDS011;10438;51.454;6.718;2023-02-28T06:09:38;15.03;;;4.33;;
20559;SDS011;10438;51.454;6.718;2023-02-28T06:12:04;11.17;;;4.00;;
20559;SDS011;10438;51.454;6.718;2023-02-28T06:14:32;18.70;;;3.90;;
20559;SDS011;10438;51.454;6.718;2023-02-28T06:16:58;8.33;;;3.00;;
20559;SDS011;10438;51.454;6.718;2023-02-28T06:19:25;10.23;;;3.57;;
20559;SDS011;10438;51.454;6.718;2023-02-28T06:21:51;13.57;;;3.30;;
20559;SDS011;10438;51.454;6.718;2023-02-28T06:24:18;8.60;;;3.27;;
20559;SDS011;10438;51.454;6.718;2023-02-28T06:26:48;8.67;;;3.20;;
20559;SDS011;10438;51.454;6.718;2023-02-28T06:29:14;7.33;;;3.27;;
20559;SDS011;10438;51.454;6.718;2023-02-28T06:31:44;6.40;;;3.17;;
20559;SDS011;10438;51.454;6.718;2023-02-28T06:34:10;10.25;;;4.40;;
20559;SDS011;10438;51.454;6.718;2023-02-28T06:36:40;8.53;;;3.40;;
20559;SDS011;10438;51.454;6.718;2023-02-28T06:39:07;10.50;;;3.63;;
20559;SDS011;10438;51.454;6.718;2023-02-28T06:41:34;8.03;;;3.07;;
20559;SDS011;10438;51.454;6.718;2023-02-28T06:44:03;8.23;;;3.23;;
20559;SDS011;10438;51.454;6.718;2023-02-28T06:46:39;11.97;;;3.57;;
20559;SDS011;10438;51.454;6.718;2023-02-28T06:49:06;15.57;;;3.67;;
20559;SDS011;10438;51.454;6.718;2023-02-28T06:51:36;7.37;;;3.00;;
20559;SDS011;10438;51.454;6.718;2023-02-28T06:54:04;11.80;;;3.30;;
20559;SDS011;10438;51.454;6.718;2023-02-28T06:56:30;11.30;;;3.60;;
20559;SDS011;10438;51.454;6.718;2023-02-28T06:58:56;9.77;;;3.30;;
20559;SDS011;10438;51.454;6.718;2023-02-28T07:01:21;9.97;;;3.07;;
20559;SDS011;10438;51.454;6.718;2023-02-28T07:03:52;5.73;;;2.67;;
20559;SDS011;10438;51.454;6.718;2023-02-28T07:06:19;10.33;;;3.43;;
20559;SDS011;10438;51.454;6.718;2023-02-28T07:08:47;12.67;;;3.43;;
20559;SDS011;10438;51.454;6.718;2023-02-28T07:11:13;12.47;;;3.50;;
20559;SDS011;10438;51.454;6.718;2023-02-28T07:13:39;11.10;;;3.80;;
20559;SDS011;10438;51.454;6.718;2023-02-28T07:16:05;12.77;;;3.17;;
20559;SDS011;10438;51.454;6.718;2023-02-28T07:18:33;19.43;;;3.70;;
20559;SDS011;10438;51.454;6.718;2023-02-28T07:21:01;11.00;;;3.20;;
20559;SDS011;10438;51.454;6.718;2023-02-28T07:23:27;10.40;;;3.47;;
20559;SDS011;10438;51.454;6.718;2023-02-28T07:25:53;8.23;;;2.80;;
20559;SDS011;10438;51.454;6.718;2023-02-28T07:28:18;11.30;;;3.20;;
20559;SDS011;10438;51.454;6.718;2023-02-28T07:30:44;12.97;;;3.20;;
20559;SDS011;10438;51.454;6.718;2023-02-28T07:33:09;9.03;;;3.20;;
20559;SDS011;10438;51.454;6.718;2023-02-28T07:35:35;11.07;;;3.20;;
20559;SDS011;10438;51.454;6.718;2023-02-28T07:38:01;11.63;;;3.17;;
20559;SDS011;10438;51.454;6.718;2023-02-28T07:40:28;9.50;;;2.97;;
20559;SDS011;10438;51.454;6.718;2023-02-28T07:42:54;9.37;;;3.40;;
20559;SDS011;10438;51.454;6.718;2023-02-28T07:45:19;8.30;;;3.00;;
20559;SDS011;10438;51.454;6.718;2023-02-28T07:47:45;18.40;;;3.20;;
20559;SDS011;10438;51.454;6.718;2023-02-28T07:50:11;8.40;;;2.83;;
20559;SDS011;10438;51.454;6.718;2023-02-28T07:52:39;8.07;;;2.60;;
20559;SDS011;10438;51.454;6.718;2023-02-28T07:55:06;7.97;;;3.10;;
20559;SDS011;10438;51.454;6.718;2023-02-28T07:57:33;9.83;;;3.03;;
20559;SDS011;10438;51.454;6.718;2023-02-28T07:59:58;11.73;;;3.00;;
20559;SDS011;10438;51.454;6.718;2023-02-28T08:02:24;15.70;;;3.27;;
20559;SDS011;10438;51.454;6.718;2023-02-28T08:04:50;5.77;;;2.77;;
20559;SDS011;10438;51.454;6.718;2023-02-28T08:07:16;8.90;;;3.10;;
20559;SDS011;10438;51.454;6.718;2023-02-28T08:09:42;7.17;;;2.53;;
20559;SDS011;10438;51.454;6.718;2023-02-28T08:12:09;7.43;;;3.23;;
20559;SDS011;10438;51.454;6.718;2023-02-28T08:14:35;8.73;;;2.67;;
20559;SDS011;10438;51.454;6.718;2023-02-28T08:17:01;9.33;;;3.07;;
20559;SDS011;10438;51.454;6.718;2023-02-28T08:19:27;8.53;;;2.97;;
20559;SDS011;10438;51.454;6.718;2023-02-28T08:21:53;6.90;;;2.90;;
20559;SDS011;10438;51.454;6.718;2023-02-28T08:24:19;10.57;;;2.60;;
20559;SDS011;10438;51.454;6.718;2023-02-28T08:26:45;8.80;;;3.23;;
20559;SDS011;10438;51.454;6.718;2023-02-28T08:29:11;10.73;;;3.10;;
20559;SDS011;10438;51.454;6.718;2023-02-28T08:31:36;11.17;;;3.03;;
20559;SDS011;10438;51.454;6.718;2023-02-28T08:34:06;15.47;;;3.57;;
20559;SDS011;10438;51.454;6.718;2023-02-28T08:36:32;8.10;;;3.03;;
20559;SDS011;10438;51.454;6.718;2023-02-28T08:38:58;11.07;;;2.70;;
20559;SDS011;10438;51.454;6.718;2023-02-28T08:41:24;9.27;;;2.90;;
20559;SDS011;10438;51.454;6.718;2023-02-28T08:43:50;8.10;;;3.00;;
20559;SDS011;10438;51.454;6.718;2023-02-28T08:46:15;7.13;;;2.60;;
20559;SDS011;10438;51.454;6.718;2023-02-28T08:48:41;5.70;;;2.30;;
20559;SDS011;10438;51.454;6.718;2023-02-28T08:51:08;6.20;;;2.30;;
20559;SDS011;10438;51.454;6.718;2023-02-28T08:53:36;6.87;;;2.70;;
20559;SDS011;10438;51.454;6.718;2023-02-28T08:56:05;10.43;;;2.60;;
20559;SDS011;10438;51.454;6.718;2023-02-28T08:58:34;8.60;;;2.57;;
20559;SDS011;10438;51.454;6.718;2023-02-28T09:01:00;9.63;;;2.67;;
20559;SDS011;10438;51.454;6.718;2023-02-28T09:03:31;6.63;;;2.67;;
20559;SDS011;10438;51.454;6.718;2023-02-28T09:05:58;7.30;;;3.27;;
20559;SDS011;10438;51.454;6.718;2023-02-28T09:08:25;6.33;;;2.43;;
20559;SDS011;10438;51.454;6.718;2023-02-28T09:10:52;6.67;;;2.40;;
20559;SDS011;10438;51.454;6.718;2023-02-28T09:13:19;10.80;;;2.33;;
20559;SDS011;10438;51.454;6.718;2023-02-28T09:15:45;6.70;;;2.57;;
20559;SDS011;10438;51.454;6.718;2023-02-28T09:18:10;8.60;;;2.73;;
20559;SDS011;10438;51.454;6.718;2023-02-28T09:20:40;9.93;;;2.30;;
20559;SDS011;10438;51.454;6.718;2023-02-28T09:23:07;7.47;;;2.57;;
20559;SDS011;10438;51.454;6.718;2023-02-28T09:25:34;9.10;;;2.13;;
20559;SDS011;10438;51.454;6.718;2023-02-28T09:28:00;7.17;;;2.17;;
20559;SDS011;10438;51.454;6.718;2023-02-28T09:30:26;4.73;;;1.73;;
20559;SDS011;10438;51.454;6.718;2023-02-28T09:32:52;5.50;;;2.10;;
20559;SDS011;10438;51.454;6.718;2023-02-28T09:35:18;7.53;;;1.90;;
20559;SDS011;10438;51.454;6.718;2023-02-28T09:37:46;5.97;;;2.00;;
20559;SDS011;10438;51.454;6.718;2023-02-28T09:40:12;8.03;;;1.80;;
20559;SDS011;10438;51.454;6.718;2023-02-28T09:42:39;7.53;;;2.10;;
20559;SDS011;10438;51.454;6.718;2023-02-28T09:45:06;4.57;;;1.90;;
20559;SDS011;10438;51.454;6.718;2023-02-28T09:47:49;4.70;;;1.60;;
20559;SDS011;10438;51.454;6.718;2023-02-28T09:50:29;9.77;;;1.63;;
20559;SDS011;10438;51.454;6.718;2023-02-28T09:53:01;6.80;;;1.53;;
20559;SDS011;10438;51.454;6.718;2023-02-28T09:55:36;4.17;;;1.57;;
20559;SDS011;10438;51.454;6.718;2023-02-28T09:58:08;4.83;;;1.60;;
20559;SDS011;10438;51.454;6.718;2023-02-28T10:00:48;4.47;;;1.63;;
20559;SDS011;10438;51.454;6.718;2023-02-28T10:03:35;3.57;;;1.53;;
20559;SDS011;10438;51.454;6.718;2023-02-28T10:08:57;4.13;;;1.60;;
20559;SDS011;10438;51.454;6.718;2023-02-28T10:11:26;3.63;;;1.50;;
20559;SDS011;10438;51.454;6.718;2023-02-28T10:13:56;4.00;;;1.97;;
20559;SDS011;10438;51.454;6.718;2023-02-28T10:16:35;2.83;;;1.20;;
20559;SDS011;10438;51.454;6.718;2023-02-28T10:19:29;4.60;;;1.37;;
20559;SDS011;10438;51.454;6.718;2023-02-28T10:25:00;5.77;;;1.77;;
20559;SDS011;10438;51.454;6.718;2023-02-28T10:27:36;6.77;;;1.37;;
20559;SDS011;10438;51.454;6.718;2023-02-28T10:30:02;5.37;;;1.90;;
20559;SDS011;10438;51.454;6.718;2023-02-28T10:32:32;5.17;;;1.60;;
20559;SDS011;10438;51.454;6.718;2023-02-28T10:35:01;4.03;;;1.70;;
20559;SDS011;10438;51.454;6.718;2023-02-28T10:37:37;3.23;;;1.50;;
20559;SDS011;10438;51.454;6.718;2023-02-28T10:40:03;8.27;;;1.60;;
20559;SDS011;10438;51.454;6.718;2023-02-28T10:42:30;3.87;;;1.37;;
20559;SDS011;10438;51.454;6.718;2023-02-28T10:45:10;4.30;;;1.70;;
20559;SDS011;10438;51.454;6.718;2023-02-28T10:47:41;5.27;;;1.50;;
20559;SDS011;10438;51.454;6.718;2023-02-28T10:56:32;4.83;;;1.60;;
20559;SDS011;10438;51.454;6.718;2023-02-28T11:01:13;3.57;;;1.33;;
20559;SDS011;10438;51.454;6.718;2023-02-28T11:03:40;4.40;;;1.60;;
20559;SDS011;10438;51.454;6.718;2023-02-28T11:06:07;6.20;;;1.70;;
20559;SDS011;10438;51.454;6.718;2023-02-28T11:08:46;5.13;;;1.90;;
20559;SDS011;10438;51.454;6.718;2023-02-28T11:11:24;6.97;;;1.70;;
20559;SDS011;10438;51.454;6.718;2023-02-28T11:13:53;5.87;;;1.83;;
20559;SDS011;10438;51.454;6.718;2023-02-28T11:16:21;5.53;;;1.73;;
20559;SDS011;10438;51.454;6.718;2023-02-28T11:18:56;4.27;;;1.63;;
20559;SDS011;10438;51.454;6.718;2023-02-28T11:21:30;4.53;;;1.47;;
20559;SDS011;10438;51.454;6.718;2023-02-28T11:24:18;3.97;;;1.53;;
20559;SDS011;10438;51.454;6.718;2023-02-28T11:26:49;10.23;;;1.60;;
20559;SDS011;10438;51.454;6.718;2023-02-28T11:29:17;4.70;;;1.53;;
20559;SDS011;10438;51.454;6.718;2023-02-28T11:34:33;3.67;;;1.40;;
20559;SDS011;10438;51.454;6.718;2023-02-28T11:37:01;7.20;;;1.70;;
20559;SDS011;10438;51.454;6.718;2023-02-28T11:39:30;4.30;;;1.53;;
20559;SDS011;10438;51.454;6.718;2023-02-28T11:52:52;3.60;;;1.43;;
20559;SDS011;10438;51.454;6.718;2023-02-28T11:58:16;8.40;;;1.67;;
20559;SDS011;10438;51.454;6.718;2023-02-28T12:18:43;8.07;;;2.10;;
20559;SDS011;10438;51.454;6.718;2023-02-28T12:21:29;5.93;;;1.70;;
20559;SDS011;10438;51.454;6.718;2023-02-28T12:26:58;10.87;;;1.80;;
20559;SDS011;10438;51.454;6.718;2023-02-28T12:34:44;8.23;;;1.80;;
20559;SDS011;10438;51.454;6.718;2023-02-28T12:37:22;11.33;;;1.90;;
20559;SDS011;10438;51.454;6.718;2023-02-28T12:40:22;4.77;;;1.87;;
20559;SDS011;10438;51.454;6.718;2023-02-28T12:42:56;4.77;;;1.70;;
20559;SDS011;10438;51.454;6.718;2023-02-28T12:48:09;4.57;;;1.80;;
20559;SDS011;10438;51.454;6.718;2023-02-28T12:50:38;5.00;;;1.87;;
20559;SDS011;10438;51.454;6.718;2023-02-28T12:53:06;4.73;;;1.90;;
20559;SDS011;10438;51.454;6.718;2023-02-28T13:09:22;4.27;;;1.80;;
20559;SDS011;10438;51.454;6.718;2023-02-28T13:11:48;5.77;;;1.80;;
20559;SDS011;10438;51.454;6.718;2023-02-28T13:14:22;4.93;;;1.87;;
20559;SDS011;10438;51.454;6.718;2023-02-28T13:19:39;3.50;;;1.70;;
20559;SDS011;10438;51.454;6.718;2023-02-28T13:22:16;5.20;;;1.97;;
20559;SDS011;10438;51.454;6.718;2023-02-28T13:25:01;11.97;;;2.63;;
20559;SDS011;10438;51.454;6.718;2023-02-28T13:27:34;11.70;;;1.90;;
20559;SDS011;10438;51.454;6.718;2023-02-28T13:36:28;4.07;;;1.70;;
20559;SDS011;10438;51.454;6.718;2023-02-28T13:38:48;7.70;;;2.30;;
20559;SDS011;10438;51.454;6.718;2023-02-28T13:44:05;4.33;;;1.93;;
20559;SDS011;10438;51.454;6.718;2023-02-28T13:47:27;6.37;;;2.00;;
20559;SDS011;10438;51.454;6.718;2023-02-28T13:49:26;6.67;;;2.40;;
20559;SDS011;10438;51.454;6.718;2023-02-28T13:57:17;4.67;;;2.03;;
20559;SDS011;10438;51.454;6.718;2023-02-28T14:02:33;5.30;;;2.70;;
20559;SDS011;10438;51.454;6.718;2023-02-28T14:05:05;3.80;;;2.17;;
20559;SDS011;10438;51.454;6.718;2023-02-28T14:07:48;8.33;;;2.43;;
20559;SDS011;10438;51.454;6.718;2023-02-28T14:12:59;3.73;;;2.10;;
20559;SDS011;10438;51.454;6.718;2023-02-28T14:15:44;11.27;;;2.13;;
20559;SDS011;10438;51.454;6.718;2023-02-28T14:18:25;4.63;;;2.20;;
20559;SDS011;10438;51.454;6.718;2023-02-28T14:20:55;4.87;;;2.03;;
20559;SDS011;10438;51.454;6.718;2023-02-28T14:23:32;4.43;;;2.10;;
20559;SDS011;10438;51.454;6.718;2023-02-28T14:28:47;7.87;;;2.30;;
20559;SDS011;10438;51.454;6.718;2023-02-28T14:31:36;6.33;;;2.27;;
20559;SDS011;10438;51.454;6.718;2023-02-28T14:37:09;4.03;;;2.13;;
20559;SDS011;10438;51.454;6.718;2023-02-28T14:39:41;5.10;;;2.40;;
20559;SDS011;10438;51.454;6.718;2023-02-28T14:45:01;4.20;;;2.30;;
20559;SDS011;10438;51.454;6.718;2023-02-28T14:47:28;5.33;;;2.40;;
20559;SDS011;10438;51.454;6.718;2023-02-28T14:49:57;8.17;;;3.30;;
20559;SDS011;10438;51.454;6.718;2023-02-28T14:52:24;6.17;;;2.77;;
20559;SDS011;10438;51.454;6.718;2023-02-28T14:54:54;4.53;;;2.07;;
20559;SDS011;10438;51.454;6.718;2023-02-28T15:02:38;4.93;;;2.20;;
20559;SDS011;10438;51.454;6.718;2023-02-28T15:07:45;6.77;;;2.67;;
20559;SDS011;10438;51.454;6.718;2023-02-28T15:10:25;7.57;;;2.80;;
20559;SDS011;10438;51.454;6.718;2023-02-28T15:12:53;5.77;;;2.77;;
20559;SDS011;10438;51.454;6.718;2023-02-28T15:15:21;5.23;;;2.37;;
20559;SDS011;10438;51.454;6.718;2023-02-28T15:17:51;10.77;;;2.80;;
20559;SDS011;10438;51.454;6.718;2023-02-28T15:20:21;4.40;;;2.20;;
20559;SDS011;10438;51.454;6.718;2023-02-28T15:22:48;5.40;;;2.33;;
20559;SDS011;10438;51.454;6.718;2023-02-28T15:25:18;5.10;;;2.27;;
20559;SDS011;10438;51.454;6.718;2023-02-28T15:27:47;6.53;;;2.30;;
20559;SDS011;10438;51.454;6.718;2023-02-28T15:30:23;8.07;;;2.30;;
20559;SDS011;10438;51.454;6.718;2023-02-28T15:33:06;7.17;;;2.40;;
20559;SDS011;10438;51.454;6.718;2023-02-28T15:35:41;8.47;;;2.67;;
20559;SDS011;10438;51.454;6.718;2023-02-28T15:38:25;8.20;;;2.40;;
20559;SDS011;10438;51.454;6.718;2023-02-28T15:40:53;6.57;;;2.30;;
20559;SDS011;10438;51.454;6.718;2023-02-28T15:43:32;6.10;;;2.53;;
20559;SDS011;10438;51.454;6.718;2023-02-28T15:51:16;4.17;;;2.20;;
20559;SDS011;10438;51.454;6.718;2023-02-28T15:53:47;6.90;;;2.60;;
20559;SDS011;10438;51.454;6.718;2023-02-28T15:57:04;5.97;;;2.30;;
20559;SDS011;10438;51.454;6.718;2023-02-28T15:59:14;8.00;;;3.27;;
20559;SDS011;10438;51.454;6.718;2023-02-28T16:01:44;6.13;;;2.90;;
20559;SDS011;10438;51.454;6.718;2023-02-28T16:04:17;4.60;;;2.30;;
20559;SDS011;10438;51.454;6.718;2023-02-28T16:06:45;7.87;;;2.50;;
20559;SDS011;10438;51.454;6.718;2023-02-28T16:09:14;4.73;;;2.40;;
20559;SDS011;10438;51.454;6.718;2023-02-28T16:11:42;4.73;;;2.07;;
20559;SDS011;10438;51.454;6.718;2023-02-28T16:14:34;5.50;;;2.30;;
20559;SDS011;10438;51.454;6.718;2023-02-28T16:17:03;9.03;;;2.97;;
20559;SDS011;10438;51.454;6.718;2023-02-28T16:19:31;6.73;;;2.60;;
20559;SDS011;10438;51.454;6.718;2023-02-28T16:21:57;7.13;;;2.73;;
20559;SDS011;10438;51.454;6.718;2023-02-28T16:24:23;8.03;;;2.90;;
20559;SDS011;10438;51.454;6.718;2023-02-28T16:26:49;6.30;;;2.53;;
20559;SDS011;10438;51.454;6.718;2023-02-28T16:29:26;8.37;;;2.80;;
20559;SDS011;10438;51.454;6.718;2023-02-28T16:31:56;7.83;;;2.50;;
20559;SDS011;10438;51.454;6.718;2023-02-28T16:34:23;9.80;;;2.73;;
20559;SDS011;10438;51.454;6.718;2023-02-28T16:36:49;9.53;;;2.70;;
20559;SDS011;10438;51.454;6.718;2023-02-28T16:39:15;4.53;;;2.63;;
20559;SDS011;10438;51.454;6.718;2023-02-28T16:41:44;4.97;;;2.80;;
20559;SDS011;10438;51.454;6.718;2023-02-28T16:44:12;8.27;;;2.70;;
20559;SDS011;10438;51.454;6.718;2023-02-28T16:46:42;7.87;;;2.97;;
20559;SDS011;10438;51.454;6.718;2023-02-28T16:49:11;5.90;;;2.90;;
20559;SDS011;10438;51.454;6.718;2023-02-28T16:51:37;7.10;;;3.13;;
20559;SDS011;10438;51.454;6.718;2023-02-28T16:54:03;7.93;;;2.93;;
20559;SDS011;10438;51.454;6.718;2023-02-28T16:56:29;9.13;;;3.60;;
20559;SDS011;10438;51.454;6.718;2023-02-28T16:58:55;8.00;;;3.07;;
20559;SDS011;10438;51.454;6.718;2023-02-28T17:01:25;5.17;;;2.60;;
20559;SDS011;10438;51.454;6.718;2023-02-28T17:03:52;6.17;;;3.00;;
20559;SDS011;10438;51.454;6.718;2023-02-28T17:06:22;9.40;;;2.93;;
20559;SDS011;10438;51.454;6.718;2023-02-28T17:08:52;6.43;;;2.83;;
20559;SDS011;10438;51.454;6.718;2023-02-28T17:11:18;10.80;;;3.07;;
20559;SDS011;10438;51.454;6.718;2023-02-28T17:13:45;7.83;;;3.10;;
20559;SDS011;10438;51.454;6.718;2023-02-28T17:16:22;6.03;;;3.00;;
20559;SDS011;10438;51.454;6.718;2023-02-28T17:18:56;7.70;;;2.60;;
20559;SDS011;10438;51.454;6.718;2023-02-28T17:21:23;6.80;;;2.93;;
20559;SDS011;10438;51.454;6.718;2023-02-28T17:23:49;8.17;;;2.97;;
20559;SDS011;10438;51.454;6.718;2023-02-28T17:26:16;6.07;;;2.70;;
20559;SDS011;10438;51.454;6.718;2023-02-28T17:28:44;5.90;;;2.37;;
20559;SDS011;10438;51.454;6.718;2023-02-28T17:31:11;6.47;;;2.37;;
20559;SDS011;10438;51.454;6.718;2023-02-28T17:33:36;5.87;;;2.27;;
20559;SDS011;10438;51.454;6.718;2023-02-28T17:36:02;10.07;;;2.77;;
20559;SDS011;10438;51.454;6.718;2023-02-28T17:38:28;5.67;;;2.93;;
20559;SDS011;10438;51.454;6.718;2023-02-28T17:40:53;5.13;;;2.30;;